createdAt,value
2017-12-23T00:00:29.739Z,68.06
2017-12-23T00:01:35.495Z,68.05
2017-12-23T00:02:41.214Z,68.00
2017-12-23T00:03:47.694Z,68.04
2017-12-23T00:04:53.446Z,68.11
2017-12-23T00:05:59.195Z,68.21
2017-12-23T00:07:04.949Z,68.33
2017-12-23T00:08:10.756Z,68.40
2017-12-23T00:09:16.486Z,68.58
2017-12-23T00:10:22.218Z,68.69
2017-12-23T00:11:28.705Z,68.77
2017-12-23T00:12:34.480Z,68.82
2017-12-23T00:13:40.210Z,68.85
2017-12-23T00:14:45.952Z,68.86
2017-12-23T00:15:51.686Z,68.86
2017-12-23T00:16:57.397Z,68.90
2017-12-23T00:18:03.132Z,68.92
2017-12-23T00:19:08.879Z,68.94
2017-12-23T00:20:14.618Z,68.95
2017-12-23T00:21:20.367Z,68.92
2017-12-23T00:22:26.106Z,68.94
2017-12-23T00:23:32.106Z,69.00
2017-12-23T00:24:38.606Z,69.00
2017-12-23T00:25:44.335Z,68.99
2017-12-23T00:26:50.063Z,68.99
2017-12-23T00:27:55.806Z,69.08
2017-12-23T00:29:02.331Z,69.19
2017-12-23T00:30:07.742Z,69.25
2017-12-23T00:31:13.471Z,69.26
2017-12-23T00:32:19.216Z,69.27
2017-12-23T00:33:24.962Z,69.29
2017-12-23T00:34:33.139Z,69.38
2017-12-23T00:35:38.872Z,69.46
2017-12-23T00:36:44.612Z,69.57
2017-12-23T00:37:50.349Z,69.74
2017-12-23T00:38:56.098Z,69.77
2017-12-23T00:40:01.842Z,69.79
2017-12-23T00:41:07.568Z,69.76
2017-12-23T00:42:14.084Z,69.69
2017-12-23T00:43:19.801Z,69.70
2017-12-23T00:44:25.526Z,69.68
2017-12-23T00:45:31.266Z,69.66
2017-12-23T00:46:36.982Z,69.60
2017-12-23T00:47:43.507Z,69.54
2017-12-23T00:48:49.237Z,69.51
2017-12-23T00:49:54.987Z,69.50
2017-12-23T00:51:00.740Z,69.51
2017-12-23T00:52:06.472Z,69.52
2017-12-23T00:53:12.208Z,69.54
2017-12-23T00:54:18.225Z,69.52
2017-12-23T00:55:23.949Z,69.48
2017-12-23T00:56:30.491Z,69.41
2017-12-23T00:57:36.996Z,69.39
2017-12-23T00:58:42.751Z,69.35
2017-12-23T00:59:48.492Z,69.40
2017-12-23T01:00:54.254Z,69.41
2017-12-23T01:02:00.014Z,69.42
2017-12-23T01:03:06.551Z,69.46
2017-12-23T01:04:12.292Z,69.50
2017-12-23T01:05:18.021Z,69.55
2017-12-23T01:06:23.972Z,69.59
2017-12-23T01:07:29.732Z,69.64
2017-12-23T01:08:35.452Z,69.73
2017-12-23T01:09:41.187Z,69.79
2017-12-23T01:10:46.944Z,69.88
2017-12-23T01:11:52.656Z,70.06
2017-12-23T01:12:58.416Z,70.32
2017-12-23T01:14:04.133Z,70.58
2017-12-23T01:15:09.869Z,70.67
2017-12-23T01:16:15.599Z,70.94
2017-12-23T01:17:22.120Z,71.08
2017-12-23T01:18:27.909Z,71.28
2017-12-23T01:19:33.655Z,71.38
2017-12-23T01:20:39.421Z,71.38
2017-12-23T01:21:44.927Z,71.75
2017-12-23T01:22:50.664Z,72.00
2017-12-23T01:23:56.443Z,72.19
2017-12-23T01:25:02.183Z,72.45
2017-12-23T01:26:07.929Z,72.64
2017-12-23T01:27:13.672Z,72.74
2017-12-23T01:28:19.418Z,72.90
2017-12-23T01:29:25.213Z,73.13
2017-12-23T01:30:30.979Z,73.13
2017-12-23T01:31:36.729Z,73.07
2017-12-23T01:32:42.483Z,73.29
2017-12-23T01:33:48.218Z,73.42
2017-12-23T01:34:54.033Z,73.74
2017-12-23T01:35:59.765Z,74.00
2017-12-23T01:37:05.514Z,73.96
2017-12-23T01:38:11.273Z,74.11
2017-12-23T01:39:17.019Z,74.17
2017-12-23T01:40:22.770Z,74.37
2017-12-23T01:41:28.522Z,74.66
2017-12-23T01:42:34.283Z,74.63
2017-12-23T01:43:40.035Z,74.82
2017-12-23T01:44:46.559Z,74.93
2017-12-23T01:45:51.976Z,75.39
2017-12-23T01:46:57.742Z,75.68
2017-12-23T01:48:03.473Z,76.23
2017-12-23T01:49:09.219Z,76.37
2017-12-23T01:50:14.973Z,76.59
2017-12-23T01:51:20.737Z,76.77
2017-12-23T01:52:27.233Z,76.78
2017-12-23T01:53:32.982Z,77.04
2017-12-23T01:54:38.741Z,77.44
2017-12-23T01:55:44.486Z,77.75
2017-12-23T01:56:50.274Z,77.86
2017-12-23T01:57:56.778Z,78.10
2017-12-23T01:59:02.524Z,78.18
2017-12-23T02:00:08.260Z,78.35
2017-12-23T02:01:14.014Z,78.48
2017-12-23T02:02:19.787Z,78.57
2017-12-23T02:03:25.529Z,78.60
2017-12-23T02:04:32.047Z,78.70
2017-12-23T02:05:37.795Z,78.78
2017-12-23T02:06:43.534Z,78.86
2017-12-23T02:07:49.311Z,79.02
2017-12-23T02:08:55.059Z,79.09
2017-12-23T02:10:01.569Z,79.28
2017-12-23T02:11:07.301Z,79.35
2017-12-23T02:12:13.033Z,79.53
2017-12-23T02:13:18.789Z,79.69
2017-12-23T02:14:24.940Z,79.62
2017-12-23T02:15:30.697Z,79.81
2017-12-23T02:16:36.451Z,80.10
2017-12-23T02:17:42.184Z,80.02
2017-12-23T02:18:47.957Z,79.89
2017-12-23T02:19:54.158Z,79.93
2017-12-23T02:20:59.916Z,79.90
2017-12-23T02:22:05.333Z,80.06
2017-12-23T02:23:11.070Z,80.19
2017-12-23T02:24:16.851Z,80.28
2017-12-23T02:25:22.623Z,80.48
2017-12-23T02:26:28.382Z,80.45
2017-12-23T02:27:34.112Z,80.47
2017-12-23T02:28:39.885Z,80.43
2017-12-23T02:29:45.649Z,80.46
2017-12-23T02:30:52.196Z,80.66
2017-12-23T02:31:57.948Z,80.67
2017-12-23T02:33:03.692Z,80.72
2017-12-23T02:34:09.460Z,80.83
2017-12-23T02:35:15.998Z,80.81
2017-12-23T02:36:21.753Z,80.75
2017-12-23T02:37:28.253Z,80.87
2017-12-23T02:38:34.001Z,80.83
2017-12-23T02:39:39.768Z,80.66
2017-12-23T02:40:45.556Z,80.64
2017-12-23T02:41:51.331Z,80.52
2017-12-23T02:42:57.073Z,80.53
2017-12-23T02:44:02.812Z,80.60
2017-12-23T02:45:08.561Z,80.57
2017-12-23T02:46:14.349Z,80.51
2017-12-23T02:47:20.874Z,80.44
2017-12-23T02:48:26.622Z,80.35
2017-12-23T02:49:32.371Z,80.30
2017-12-23T02:50:38.104Z,80.20
2017-12-23T02:51:43.875Z,80.14
2017-12-23T02:52:50.452Z,80.05
2017-12-23T02:53:56.980Z,79.97
2017-12-23T02:55:02.728Z,79.95
2017-12-23T02:56:09.272Z,80.04
2017-12-23T02:57:15.040Z,79.95
2017-12-23T02:58:21.571Z,79.91
2017-12-23T02:59:27.312Z,79.91
2017-12-23T03:00:33.075Z,79.92
2017-12-23T03:01:38.810Z,79.91
2017-12-23T03:02:46.128Z,79.79
2017-12-23T03:03:51.937Z,79.76
2017-12-23T03:04:58.465Z,79.79
2017-12-23T03:06:04.273Z,79.91
2017-12-23T03:07:10.020Z,79.87
2017-12-23T03:08:15.780Z,79.87
2017-12-23T03:09:21.508Z,79.87
2017-12-23T03:10:27.300Z,79.88
2017-12-23T03:11:33.059Z,80.05
2017-12-23T03:12:38.802Z,80.19
2017-12-23T03:13:45.345Z,80.12
2017-12-23T03:14:51.073Z,80.23
2017-12-23T03:15:56.859Z,80.31
2017-12-23T03:17:02.605Z,80.19
2017-12-23T03:18:08.945Z,80.28
2017-12-23T03:19:15.492Z,80.28
2017-12-23T03:20:22.001Z,80.20
2017-12-23T03:21:27.768Z,80.23
2017-12-23T03:22:33.553Z,80.22
2017-12-23T03:23:39.309Z,80.31
2017-12-23T03:24:45.118Z,80.28
2017-12-23T03:25:51.639Z,80.41
2017-12-23T03:26:57.379Z,80.46
2017-12-23T03:28:03.076Z,80.50
2017-12-23T03:29:08.835Z,80.51
2017-12-23T03:30:14.613Z,80.48
2017-12-23T03:31:20.403Z,80.63
2017-12-23T03:32:26.185Z,80.58
2017-12-23T03:33:31.991Z,80.58
2017-12-23T03:34:37.733Z,80.57
2017-12-23T03:35:43.510Z,80.61
2017-12-23T03:36:49.250Z,80.60
2017-12-23T03:37:54.987Z,80.65
2017-12-23T03:39:00.724Z,80.67
2017-12-23T03:40:06.490Z,80.54
2017-12-23T03:41:12.248Z,80.52
2017-12-23T03:42:17.981Z,80.68
2017-12-23T03:43:24.324Z,80.68
2017-12-23T03:44:30.062Z,80.72
2017-12-23T03:45:35.825Z,80.73
2017-12-23T03:46:41.582Z,80.78
2017-12-23T03:47:48.105Z,80.71
2017-12-23T03:48:53.855Z,80.80
2017-12-23T03:49:59.604Z,80.78
2017-12-23T03:51:06.875Z,80.76
2017-12-23T03:52:12.665Z,80.82
2017-12-23T03:53:18.413Z,80.92
2017-12-23T03:54:24.173Z,81.03
2017-12-23T03:55:29.954Z,81.01
2017-12-23T03:56:35.884Z,80.92
2017-12-23T03:57:41.704Z,80.76
2017-12-23T03:58:47.455Z,80.84
2017-12-23T03:59:53.216Z,80.83
2017-12-23T04:00:58.976Z,80.87
2017-12-23T04:02:05.488Z,81.03
2017-12-23T04:03:11.263Z,81.08
2017-12-23T04:04:17.760Z,81.09
2017-12-23T04:05:23.510Z,80.99
2017-12-23T04:06:29.270Z,80.92
2017-12-23T04:07:35.023Z,81.02
2017-12-23T04:08:40.808Z,81.10
2017-12-23T04:09:47.321Z,81.06
2017-12-23T04:10:53.072Z,81.00
2017-12-23T04:11:58.825Z,81.00
2017-12-23T04:13:05.332Z,81.07
2017-12-23T04:14:11.104Z,81.14
2017-12-23T04:15:16.667Z,81.23
2017-12-23T04:16:22.424Z,81.22
2017-12-23T04:17:28.948Z,81.15
2017-12-23T04:18:34.686Z,81.10
2017-12-23T04:19:40.463Z,81.09
2017-12-23T04:20:46.972Z,81.09
2017-12-23T04:21:52.729Z,80.91
2017-12-23T04:22:58.474Z,80.87
2017-12-23T04:24:04.214Z,80.86
2017-12-23T04:25:10.113Z,80.87
2017-12-23T04:26:15.849Z,80.79
2017-12-23T04:27:21.591Z,80.70
2017-12-23T04:28:28.423Z,80.62
2017-12-23T04:29:34.197Z,80.51
2017-12-23T04:30:40.256Z,80.38
2017-12-23T04:31:45.972Z,80.35
2017-12-23T04:32:51.766Z,80.25
2017-12-23T04:33:57.571Z,80.13
2017-12-23T04:35:04.123Z,80.09
2017-12-23T04:36:09.926Z,80.04
2017-12-23T04:37:15.666Z,79.97
2017-12-23T04:38:21.403Z,79.91
2017-12-23T04:39:27.154Z,79.92
2017-12-23T04:40:32.894Z,79.92
2017-12-23T04:41:38.652Z,79.84
2017-12-23T04:42:44.408Z,79.85
2017-12-23T04:43:50.133Z,79.83
2017-12-23T04:44:56.357Z,79.85
2017-12-23T04:46:02.092Z,79.85
2017-12-23T04:47:07.863Z,79.84
2017-12-23T04:48:13.611Z,79.86
2017-12-23T04:49:19.364Z,79.74
2017-12-23T04:50:25.089Z,79.70
2017-12-23T04:51:30.844Z,79.75
2017-12-23T04:52:36.599Z,79.72
2017-12-23T04:53:43.096Z,79.76
2017-12-23T04:54:48.864Z,79.66
2017-12-23T04:55:54.824Z,79.58
2017-12-23T04:57:00.583Z,79.59
2017-12-23T04:58:07.096Z,79.56
2017-12-23T04:59:12.646Z,79.48
2017-12-23T05:00:18.203Z,79.48
2017-12-23T05:01:23.960Z,79.43
2017-12-23T05:02:29.680Z,79.35
2017-12-23T05:03:35.491Z,79.36
2017-12-23T05:04:41.250Z,79.28
2017-12-23T05:05:47.007Z,79.29
2017-12-23T05:06:52.732Z,79.36
2017-12-23T05:07:58.476Z,79.36
2017-12-23T05:09:04.033Z,79.34
2017-12-23T05:10:09.775Z,79.41
2017-12-23T05:11:15.558Z,79.48
2017-12-23T05:12:21.320Z,79.52
2017-12-23T05:13:27.054Z,79.50
2017-12-23T05:14:32.809Z,79.51
2017-12-23T05:15:38.578Z,79.47
2017-12-23T05:16:44.324Z,79.44
2017-12-23T05:17:50.061Z,79.45
2017-12-23T05:18:55.879Z,79.53
2017-12-23T05:20:01.654Z,79.45
2017-12-23T05:21:07.429Z,79.51
2017-12-23T05:22:13.614Z,79.58
2017-12-23T05:23:19.374Z,79.68
2017-12-23T05:24:24.972Z,79.67
2017-12-23T05:25:30.753Z,79.88
2017-12-23T05:26:36.480Z,79.94
2017-12-23T05:27:42.246Z,79.98
2017-12-23T05:28:48.014Z,80.06
2017-12-23T05:29:54.516Z,80.15
2017-12-23T05:31:00.279Z,80.23
2017-12-23T05:32:06.015Z,80.34
2017-12-23T05:33:13.268Z,80.43
2017-12-23T05:34:19.020Z,80.52
2017-12-23T05:35:24.764Z,80.63
2017-12-23T05:36:30.561Z,80.66
2017-12-23T05:37:36.300Z,80.70
2017-12-23T05:38:42.055Z,80.80
2017-12-23T05:39:47.796Z,80.95
2017-12-23T05:40:53.551Z,81.03
2017-12-23T05:41:59.337Z,81.04
2017-12-23T05:43:05.846Z,81.18
2017-12-23T05:44:11.587Z,81.11
2017-12-23T05:45:17.355Z,81.11
2017-12-23T05:46:23.137Z,81.16
2017-12-23T05:47:28.890Z,81.12
2017-12-23T05:48:34.616Z,81.10
2017-12-23T05:49:40.374Z,81.08
2017-12-23T05:50:46.096Z,81.02
2017-12-23T05:51:51.848Z,81.00
2017-12-23T05:52:59.128Z,80.95
2017-12-23T05:54:05.647Z,80.95
2017-12-23T05:55:11.424Z,80.96
2017-12-23T05:56:17.189Z,80.91
2017-12-23T05:57:23.711Z,80.87
2017-12-23T05:58:29.482Z,80.85
2017-12-23T05:59:36.019Z,80.90
2017-12-23T06:00:41.423Z,80.94
2017-12-23T06:01:47.177Z,80.90
2017-12-23T06:02:52.913Z,80.87
2017-12-23T06:03:58.683Z,80.89
2017-12-23T06:05:04.444Z,80.83
2017-12-23T06:06:10.182Z,80.79
2017-12-23T06:07:16.706Z,80.72
2017-12-23T06:08:22.462Z,80.69
2017-12-23T06:09:28.241Z,80.65
2017-12-23T06:10:34.743Z,80.68
2017-12-23T06:11:40.494Z,80.76
2017-12-23T06:12:46.225Z,80.76
2017-12-23T06:13:51.963Z,80.64
2017-12-23T06:14:57.732Z,80.60
2017-12-23T06:16:03.285Z,80.56
2017-12-23T06:17:09.804Z,80.59
2017-12-23T06:18:15.550Z,80.55
2017-12-23T06:19:22.066Z,80.62
2017-12-23T06:20:27.852Z,80.55
2017-12-23T06:21:33.652Z,80.55
2017-12-23T06:22:39.393Z,80.51
2017-12-23T06:23:45.113Z,80.47
2017-12-23T06:24:51.619Z,80.38
2017-12-23T06:25:57.430Z,80.39
2017-12-23T06:27:03.170Z,80.29
2017-12-23T06:28:08.931Z,80.28
2017-12-23T06:29:14.689Z,80.34
2017-12-23T06:30:20.416Z,80.37
2017-12-23T06:31:26.198Z,80.40
2017-12-23T06:32:31.982Z,80.29
2017-12-23T06:33:37.736Z,80.23
2017-12-23T06:34:43.489Z,80.23
2017-12-23T06:35:49.221Z,80.21
2017-12-23T06:36:54.998Z,80.17
2017-12-23T06:38:00.740Z,80.22
2017-12-23T06:39:05.813Z,80.20
2017-12-23T06:40:11.539Z,80.15
2017-12-23T06:41:17.283Z,80.22
2017-12-23T06:42:23.065Z,80.20
2017-12-23T06:43:29.006Z,80.20
2017-12-23T06:44:34.765Z,80.19
2017-12-23T06:45:40.534Z,80.25
2017-12-23T06:46:46.257Z,80.13
2017-12-23T06:47:52.031Z,80.18
2017-12-23T06:48:57.790Z,80.14
2017-12-23T06:50:04.293Z,80.19
2017-12-23T06:51:10.047Z,80.30
2017-12-23T06:52:15.852Z,80.26
2017-12-23T06:53:21.625Z,80.26
2017-12-23T06:54:27.358Z,80.30
2017-12-23T06:55:33.106Z,80.35
2017-12-23T06:56:38.846Z,80.37
2017-12-23T06:57:44.584Z,80.40
2017-12-23T06:58:50.357Z,80.40
2017-12-23T06:59:56.094Z,80.40
2017-12-23T07:01:01.857Z,80.38
2017-12-23T07:02:07.590Z,80.32
2017-12-23T07:03:13.348Z,80.24
2017-12-23T07:04:19.886Z,80.19
2017-12-23T07:05:25.613Z,80.12
2017-12-23T07:06:31.362Z,80.04
2017-12-23T07:07:37.097Z,80.00
2017-12-23T07:08:42.847Z,80.00
2017-12-23T07:09:48.602Z,80.06
2017-12-23T07:10:54.351Z,80.06
2017-12-23T07:12:00.140Z,80.10
2017-12-23T07:13:06.116Z,80.12
2017-12-23T07:14:11.857Z,80.08
2017-12-23T07:15:17.857Z,80.05
2017-12-23T07:16:23.594Z,79.96
2017-12-23T07:17:29.324Z,79.96
2017-12-23T07:18:35.829Z,80.01
2017-12-23T07:19:43.179Z,80.01
2017-12-23T07:20:48.962Z,80.00
2017-12-23T07:21:54.727Z,80.01
2017-12-23T07:23:00.490Z,80.01
2017-12-23T07:24:06.229Z,80.02
2017-12-23T07:25:12.738Z,79.99
2017-12-23T07:26:18.519Z,79.94
2017-12-23T07:27:25.051Z,79.88
2017-12-23T07:28:30.777Z,79.84
2017-12-23T07:29:36.536Z,79.79
2017-12-23T07:30:42.279Z,79.77
2017-12-23T07:31:48.034Z,79.72
2017-12-23T07:32:53.760Z,79.70
2017-12-23T07:33:59.513Z,79.70
2017-12-23T07:35:06.021Z,79.73
2017-12-23T07:36:11.770Z,79.70
2017-12-23T07:37:17.592Z,79.75
2017-12-23T07:38:23.369Z,79.68
2017-12-23T07:39:29.128Z,79.59
2017-12-23T07:40:34.880Z,79.54
2017-12-23T07:41:40.672Z,79.50
2017-12-23T07:42:46.436Z,79.42
2017-12-23T07:43:52.192Z,79.28
2017-12-23T07:44:57.939Z,79.12
2017-12-23T07:46:03.676Z,79.02
2017-12-23T07:47:09.429Z,78.94
2017-12-23T07:48:15.206Z,78.86
2017-12-23T07:49:20.734Z,78.80
2017-12-23T07:50:26.542Z,78.72
2017-12-23T07:51:32.307Z,78.67
2017-12-23T07:52:38.805Z,78.58
2017-12-23T07:53:44.635Z,78.51
2017-12-23T07:54:50.371Z,78.46
2017-12-23T07:55:56.124Z,78.37
2017-12-23T07:57:01.862Z,78.30
2017-12-23T07:58:07.614Z,78.25
2017-12-23T07:59:13.494Z,78.23
2017-12-23T08:00:19.229Z,78.17
2017-12-23T08:01:24.968Z,78.10
2017-12-23T08:02:30.919Z,78.05
2017-12-23T08:03:36.817Z,77.99
2017-12-23T08:04:42.659Z,77.97
2017-12-23T08:05:48.605Z,77.99
2017-12-23T08:06:54.455Z,77.98
2017-12-23T08:08:00.611Z,78.06
2017-12-23T08:09:05.767Z,78.01
2017-12-23T08:10:11.535Z,78.09
2017-12-23T08:11:17.266Z,78.07
2017-12-23T08:12:23.152Z,78.09
2017-12-23T08:13:29.031Z,78.14
2017-12-23T08:14:34.785Z,78.18
2017-12-23T08:15:40.579Z,78.20
2017-12-23T08:16:46.312Z,78.15
2017-12-23T08:17:52.840Z,78.15
2017-12-23T08:18:58.580Z,78.20
2017-12-23T08:20:05.185Z,78.26
2017-12-23T08:21:11.943Z,78.27
2017-12-23T08:22:18.467Z,78.26
2017-12-23T08:23:27.629Z,78.31
2017-12-23T08:24:34.418Z,78.19
2017-12-23T08:25:41.856Z,78.14
2017-12-23T08:26:48.945Z,78.17
2017-12-23T08:27:55.531Z,78.12
2017-12-23T08:29:01.324Z,78.02
2017-12-23T08:30:09.657Z,77.92
2017-12-23T08:31:15.815Z,77.82
2017-12-23T08:32:22.872Z,77.69
2017-12-23T08:33:29.441Z,77.55
2017-12-23T08:34:35.167Z,77.44
2017-12-23T08:35:40.985Z,77.27
2017-12-23T08:36:48.248Z,77.12
2017-12-23T08:37:54.054Z,77.01
2017-12-23T08:39:01.459Z,76.88
2017-12-23T08:40:07.661Z,76.85
2017-12-23T08:41:14.380Z,76.66
2017-12-23T08:42:20.961Z,76.54
2017-12-23T08:43:28.062Z,76.46
2017-12-23T08:44:33.958Z,76.42
2017-12-23T08:45:40.114Z,76.38
2017-12-23T08:46:46.071Z,76.32
2017-12-23T08:47:51.824Z,76.24
2017-12-23T08:48:58.752Z,76.20
2017-12-23T08:50:04.435Z,76.09
2017-12-23T08:51:10.032Z,75.90
2017-12-23T08:52:16.658Z,75.64
2017-12-23T08:53:22.549Z,75.50
2017-12-23T08:54:28.356Z,75.40
2017-12-23T08:55:34.108Z,75.29
2017-12-23T08:56:40.605Z,75.17
2017-12-23T08:57:46.449Z,75.04
2017-12-23T08:58:52.236Z,74.93
2017-12-23T08:59:59.987Z,74.85
2017-12-23T09:01:05.775Z,74.76
2017-12-23T09:02:11.654Z,74.71
2017-12-23T09:03:17.401Z,74.62
2017-12-23T09:04:23.294Z,74.60
2017-12-23T09:05:29.062Z,74.66
2017-12-23T09:06:34.824Z,74.64
2017-12-23T09:07:41.053Z,74.60
2017-12-23T09:08:46.900Z,74.60
2017-12-23T09:09:52.659Z,74.57
2017-12-23T09:10:58.550Z,74.56
2017-12-23T09:12:04.316Z,74.54
2017-12-23T09:13:10.818Z,74.49
2017-12-23T09:14:16.615Z,74.53
2017-12-23T09:15:22.639Z,74.48
2017-12-23T09:16:28.776Z,74.40
2017-12-23T09:17:34.265Z,74.35
2017-12-23T09:18:40.017Z,74.26
2017-12-23T09:19:46.641Z,74.26
2017-12-23T09:20:52.396Z,74.22
2017-12-23T09:21:58.190Z,74.18
2017-12-23T09:23:03.935Z,74.23
2017-12-23T09:24:09.637Z,74.26
2017-12-23T09:25:15.429Z,74.33
2017-12-23T09:26:21.968Z,74.39
2017-12-23T09:27:27.765Z,74.42
2017-12-23T09:28:33.528Z,74.57
2017-12-23T09:29:39.291Z,74.70
2017-12-23T09:30:45.062Z,74.64
2017-12-23T09:31:51.608Z,74.72
2017-12-23T09:32:57.380Z,74.88
2017-12-23T09:34:03.106Z,74.90
2017-12-23T09:35:09.627Z,75.01
2017-12-23T09:36:15.399Z,75.15
2017-12-23T09:37:21.919Z,75.11
2017-12-23T09:38:27.712Z,75.05
2017-12-23T09:39:33.481Z,74.95
2017-12-23T09:40:39.238Z,74.76
2017-12-23T09:41:44.986Z,74.62
2017-12-23T09:42:50.764Z,74.49
2017-12-23T09:43:57.295Z,74.45
2017-12-23T09:45:03.205Z,74.41
2017-12-23T09:46:09.523Z,74.44
2017-12-23T09:47:15.696Z,74.49
2017-12-23T09:48:21.428Z,74.64
2017-12-23T09:49:28.035Z,74.77
2017-12-23T09:50:33.792Z,74.89
2017-12-23T09:51:39.528Z,75.03
2017-12-23T09:52:45.376Z,75.00
2017-12-23T09:53:51.212Z,75.02
2017-12-23T09:54:57.009Z,75.21
2017-12-23T09:56:02.760Z,75.37
2017-12-23T09:57:08.519Z,75.40
2017-12-23T09:58:14.269Z,75.40
2017-12-23T09:59:20.027Z,75.46
2017-12-23T10:00:25.805Z,75.38
2017-12-23T10:01:32.309Z,75.25
2017-12-23T10:02:38.049Z,75.28
2017-12-23T10:03:43.850Z,75.26
2017-12-23T10:04:50.355Z,75.19
2017-12-23T10:05:56.167Z,75.24
2017-12-23T10:07:01.912Z,75.11
2017-12-23T10:08:07.654Z,74.89
2017-12-23T10:09:13.389Z,74.66
2017-12-23T10:10:19.136Z,74.62
2017-12-23T10:11:24.910Z,74.47
2017-12-23T10:12:30.670Z,74.45
2017-12-23T10:13:36.459Z,74.32
2017-12-23T10:14:42.222Z,74.14
2017-12-23T10:15:48.041Z,73.89
2017-12-23T10:16:53.823Z,73.77
2017-12-23T10:17:59.592Z,73.71
2017-12-23T10:19:06.103Z,73.67
2017-12-23T10:20:11.931Z,73.65
2017-12-23T10:21:18.527Z,73.78
2017-12-23T10:22:24.293Z,73.81
2017-12-23T10:23:30.040Z,73.78
2017-12-23T10:24:36.590Z,73.98
2017-12-23T10:25:42.329Z,74.07
2017-12-23T10:26:48.119Z,73.95
2017-12-23T10:27:53.903Z,73.83
2017-12-23T10:28:59.709Z,73.66
2017-12-23T10:30:05.325Z,73.70
2017-12-23T10:31:11.099Z,73.84
2017-12-23T10:32:16.851Z,74.01
2017-12-23T10:33:22.686Z,73.79
2017-12-23T10:34:28.267Z,73.51
2017-12-23T10:35:34.762Z,73.50
2017-12-23T10:36:40.512Z,73.41
2017-12-23T10:37:46.663Z,73.53
2017-12-23T10:38:52.453Z,73.39
2017-12-23T10:39:58.224Z,73.19
2017-12-23T10:41:04.758Z,73.21
2017-12-23T10:42:10.524Z,73.19
2017-12-23T10:43:16.384Z,73.29
2017-12-23T10:44:22.172Z,73.23
2017-12-23T10:45:27.938Z,73.30
2017-12-23T10:46:33.810Z,73.24
2017-12-23T10:47:39.560Z,73.42
2017-12-23T10:48:45.307Z,73.33
2017-12-23T10:49:51.130Z,73.33
2017-12-23T10:50:57.802Z,73.39
2017-12-23T10:52:03.564Z,73.57
2017-12-23T10:53:09.385Z,73.61
2017-12-23T10:54:15.165Z,73.51
2017-12-23T10:55:21.027Z,73.56
2017-12-23T10:56:26.758Z,73.62
2017-12-23T10:57:32.557Z,73.70
2017-12-23T10:58:38.343Z,73.64
2017-12-23T10:59:44.106Z,73.70
2017-12-23T11:00:50.288Z,73.80
2017-12-23T11:01:56.039Z,73.94
2017-12-23T11:03:01.768Z,74.08
2017-12-23T11:04:07.694Z,74.18
2017-12-23T11:05:14.481Z,74.01
2017-12-23T11:06:20.412Z,74.06
2017-12-23T11:07:27.033Z,73.94
2017-12-23T11:08:33.088Z,73.71
2017-12-23T11:09:39.097Z,73.48
2017-12-23T11:10:45.146Z,73.44
2017-12-23T11:11:51.180Z,73.51
2017-12-23T11:12:57.490Z,73.45
2017-12-23T11:14:03.392Z,73.34
2017-12-23T11:15:09.529Z,73.17
2017-12-23T11:16:15.782Z,73.06
2017-12-23T11:17:21.873Z,72.96
2017-12-23T11:18:27.903Z,72.95
2017-12-23T11:19:34.265Z,72.84
2017-12-23T11:20:40.271Z,72.57
2017-12-23T11:21:46.281Z,72.32
2017-12-23T11:22:52.429Z,72.16
2017-12-23T11:23:59.351Z,72.13
2017-12-23T11:25:05.380Z,72.12
2017-12-23T11:26:12.196Z,71.94
2017-12-23T11:27:18.316Z,71.91
2017-12-23T11:28:24.980Z,71.87
2017-12-23T11:29:31.101Z,71.80
2017-12-23T11:30:38.038Z,71.68
2017-12-23T11:31:44.998Z,71.63
2017-12-23T11:32:51.172Z,71.65
2017-12-23T11:33:57.379Z,71.66
2017-12-23T11:35:03.354Z,71.48
2017-12-23T11:36:09.506Z,71.42
2017-12-23T11:37:16.550Z,71.33
2017-12-23T11:38:22.593Z,71.10
2017-12-23T11:39:28.721Z,70.85
2017-12-23T11:40:34.891Z,70.65
2017-12-23T11:41:40.785Z,70.59
2017-12-23T11:42:47.852Z,70.41
2017-12-23T11:43:53.955Z,70.04
2017-12-23T11:45:00.171Z,69.68
2017-12-23T11:46:07.078Z,69.54
2017-12-23T11:47:14.035Z,69.37
2017-12-23T11:48:20.707Z,69.14
2017-12-23T11:49:27.601Z,69.18
2017-12-23T11:50:33.479Z,69.10
2017-12-23T11:51:39.576Z,69.12
2017-12-23T11:52:45.627Z,68.79
2017-12-23T11:53:51.665Z,68.73
2017-12-23T11:54:57.825Z,68.70
2017-12-23T11:56:03.788Z,68.76
2017-12-23T11:57:09.824Z,68.73
2017-12-23T11:58:17.914Z,68.89
2017-12-23T11:59:23.839Z,68.83
2017-12-23T12:00:30.722Z,68.77
2017-12-23T12:01:36.775Z,68.62
2017-12-23T12:02:42.818Z,68.71
2017-12-23T12:03:48.953Z,68.90
2017-12-23T12:04:55.404Z,68.81
2017-12-23T12:06:02.316Z,68.78
2017-12-23T12:07:08.229Z,68.62
2017-12-23T12:08:14.898Z,68.70
2017-12-23T12:09:20.732Z,68.44
2017-12-23T12:10:26.902Z,68.70
2017-12-23T12:11:33.151Z,68.85
2017-12-23T12:12:39.029Z,68.95
2017-12-23T12:13:45.051Z,69.11
2017-12-23T12:14:51.091Z,68.95
2017-12-23T12:15:57.139Z,68.78
2017-12-23T12:17:03.185Z,68.66
2017-12-23T12:18:09.275Z,68.82
2017-12-23T12:19:16.318Z,68.91
2017-12-23T12:20:23.014Z,69.06
2017-12-23T12:21:29.090Z,68.96
2017-12-23T12:22:35.131Z,69.11
2017-12-23T12:23:41.291Z,69.33
2017-12-23T12:24:48.313Z,69.57
2017-12-23T12:25:54.406Z,69.82
2017-12-23T12:27:00.615Z,69.93
2017-12-23T12:28:06.580Z,70.05
2017-12-23T12:29:12.611Z,70.13
2017-12-23T12:30:18.760Z,69.96
2017-12-23T12:31:24.526Z,69.91
2017-12-23T12:32:30.292Z,70.30
2017-12-23T12:33:36.026Z,70.29
2017-12-23T12:34:42.992Z,70.32
2017-12-23T12:35:48.824Z,70.50
2017-12-23T12:36:55.140Z,70.61
2017-12-23T12:38:01.791Z,70.72
2017-12-23T12:39:08.485Z,70.66
2017-12-23T12:40:15.705Z,70.65
2017-12-23T12:41:21.464Z,70.71
2017-12-23T12:42:27.335Z,70.90
2017-12-23T12:43:33.910Z,70.80
2017-12-23T12:44:40.963Z,70.86
2017-12-23T12:45:48.051Z,70.92
2017-12-23T12:46:54.834Z,70.96
2017-12-23T12:48:00.910Z,70.93
2017-12-23T12:49:06.668Z,71.01
2017-12-23T12:50:13.186Z,70.99
2017-12-23T12:51:20.033Z,70.86
2017-12-23T12:52:26.651Z,70.70
2017-12-23T12:53:32.461Z,70.89
2017-12-23T12:54:38.212Z,70.90
2017-12-23T12:55:43.980Z,70.99
2017-12-23T12:56:49.861Z,71.20
2017-12-23T12:57:55.725Z,71.32
2017-12-23T12:59:02.228Z,71.00
2017-12-23T13:00:08.145Z,70.64
2017-12-23T13:01:13.947Z,70.75
2017-12-23T13:02:20.437Z,70.86
2017-12-23T13:03:26.229Z,71.11
2017-12-23T13:04:31.965Z,71.38
2017-12-23T13:05:37.962Z,71.71
2017-12-23T13:06:43.792Z,71.95
2017-12-23T13:07:50.405Z,72.00
2017-12-23T13:08:56.433Z,72.35
2017-12-23T13:10:02.563Z,72.21
2017-12-23T13:11:08.154Z,72.00
2017-12-23T13:12:14.251Z,72.11
2017-12-23T13:13:19.994Z,71.85
2017-12-23T13:14:25.953Z,71.62
2017-12-23T13:15:31.966Z,71.72
2017-12-23T13:16:38.014Z,71.92
2017-12-23T13:17:44.926Z,71.87
2017-12-23T13:18:51.714Z,72.07
2017-12-23T13:19:58.456Z,72.11
2017-12-23T13:21:04.608Z,72.11
2017-12-23T13:22:10.473Z,72.26
2017-12-23T13:23:18.165Z,72.42
2017-12-23T13:24:24.190Z,72.61
2017-12-23T13:25:30.083Z,72.65
2017-12-23T13:26:36.028Z,72.65
2017-12-23T13:27:41.947Z,72.63
2017-12-23T13:28:47.967Z,72.72
2017-12-23T13:29:53.874Z,72.70
2017-12-23T13:31:00.521Z,72.87
2017-12-23T13:32:06.296Z,72.98
2017-12-23T13:33:12.828Z,72.81
2017-12-23T13:34:19.782Z,72.79
2017-12-23T13:35:25.578Z,72.87
2017-12-23T13:36:31.374Z,72.96
2017-12-23T13:37:37.137Z,72.97
2017-12-23T13:38:43.112Z,73.11
2017-12-23T13:39:49.172Z,73.15
2017-12-23T13:40:55.500Z,73.12
2017-12-23T13:42:01.911Z,73.15
2017-12-23T13:43:07.696Z,73.33
2017-12-23T13:44:14.256Z,73.30
2017-12-23T13:45:20.967Z,73.36
2017-12-23T13:46:26.986Z,73.42
2017-12-23T13:47:32.774Z,73.50
2017-12-23T13:48:39.362Z,73.47
2017-12-23T13:49:45.148Z,73.38
2017-12-23T13:50:50.945Z,73.51
2017-12-23T13:51:57.530Z,73.33
2017-12-23T13:53:03.336Z,73.18
2017-12-23T13:54:09.434Z,73.32
2017-12-23T13:55:15.243Z,73.28
2017-12-23T13:56:21.345Z,73.13
2017-12-23T13:57:27.571Z,73.33
2017-12-23T13:58:34.965Z,73.38
2017-12-23T13:59:43.709Z,73.35
2017-12-23T14:00:51.203Z,73.35
2017-12-23T14:01:58.275Z,73.29
2017-12-23T14:03:06.177Z,73.24
2017-12-23T14:04:13.141Z,73.24
2017-12-23T14:05:21.909Z,73.29
2017-12-23T14:06:29.205Z,73.48
2017-12-23T14:07:36.414Z,73.70
2017-12-23T14:08:44.389Z,73.85
2017-12-23T14:09:52.716Z,73.91